Impacts METAR Board
IDs:

KDEN - Denver Intl, CO, US

Updated at: 1500 UTC 23 Jun 2018
Potential Impact None Slight Moderate High
Time 23/03Z 23/04Z 23/05Z 23/06Z 23/07Z 23/08Z 23/09Z 23/10Z 23/11Z 23/12Z 23/13Z 23/14Z 23/15Z
Temp72 63 61 59 59 60 59 60 55 55 63 68 73
Dewpt40 48 49 48 49 49 49 48 47 47 48 47 45
Altim29.93 29.99 30.01 30.03 30.04 30.02 30.02 30.00 29.99 29.99 29.99 29.99 29.99
VIS10 10 10 10 10 10 10 10 10 10 10 10 10
CIG-- -- -- -- -- -- -- -- -- -- -- -- 220
CoverSCTSCTFEWCLRCLRCLRCLRCLRFEWFEWFEWSCTBKN
FltCatVFRVFRVFRVFRVFRVFRVFRVFRVFRVFRVFRVFRVFR
WX--------------------------
WDir90206070290290300290220200190220240
WSpd5 7 6 6 8 10 8 7 5 8 5 6 5
WGst-- -- -- -- -- -- -- -- -- -- -- -- --
Raw hourly METARs
KDEN 230253Z 09005KT 10SM FEW100 SCT150 SCT220 22/04 A2993 RMK AO2 SLP054 60000 T02220044 53012
KDEN 230353Z 02007KT 10SM FEW140 SCT220 17/09 A2999 RMK AO2 SLP081 T01720089
KDEN 230453Z 06006KT 10SM FEW140 FEW220 16/09 A3001 RMK AO2 SLP087 T01610094
KDEN 230553Z 07006KT 10SM CLR 15/09 A3003 RMK AO2 SLP094 60000 T01500089 10278 20150 51029
KDEN 230653Z 29008KT 10SM CLR 15/09 A3004 RMK AO2 SLP089 T01500094 403220128
KDEN 230753Z 29010KT 10SM CLR 16/09 A3002 RMK AO2 SLP082 T01560094
KDEN 230853Z 30008KT 10SM CLR 15/09 A3002 RMK AO2 SLP080 T01500094 58003
KDEN 230953Z 29007KT 10SM CLR 16/09 A3000 RMK AO2 SLP082 T01560089
KDEN 231053Z 22005KT 10SM FEW220 13/08 A2999 RMK AO2 SLP083 T01280083
KDEN 231153Z 20008KT 10SM FEW120 FEW220 13/08 A2999 RMK AO2 SLP083 T01280083 10156 20106 56007
KDEN 231253Z 19005KT 10SM FEW120 FEW220 17/09 A2999 RMK AO2 SLP077 T01720089
KDEN 231353Z 22006KT 10SM FEW120 SCT220 20/08 A2999 RMK AO2 SLP072 T02000083
KDEN 231453Z 24005KT 10SM FEW120 BKN220 23/07 A2999 RMK AO2 SLP073 T02280072 53000



Page loaded:  15:34 UTC  |   08:34 AM Pacific  |   09:34 AM Mountain  |   10:34 AM Central  |   11:34 AM Eastern

 

ADVISORIES

FORECASTS

FORECASTS

OBSERVATIONS

USER TOOLS

ABOUT US